Illovo, South Africa
Current Conditions -  °F | °C
As of 2:00 AM on Saturday 25 Oct 2014 (Local Time) from FALE Reporting Station
Scattered Clouds Scattered Clouds  
Wind Chill: 63°   Ceiling: Unl
Heat Index: 63°   Visibility: 6mi
Dew Point: 61°   Wind: 1mph
Humidity: 94%   Direction: NA
Pressure: 30.03"   Gusts: NA
Location:  30.12°S, 30.85°E
Report Text: FALE 250000Z VRB01KT 9999 FEW018 SCT032 17/16 Q1017 NOSIG
Loading
Personal Weather Stations






























Interactive Weather Map
Tropical Storm Tracking
New forecast layout! Learn more

10-Day Weather Forecast

Advertisements
Track Severe Weather on mobile